Time;durP1;ratioP1;P1;durP2;ratioP2;P2;SDS_P1;SDS_P2;PMS_P1;PMS_P2;Temp;Humidity;BMP_temperature;BMP_pressure;BME280_temperature;BME280_humidity;BME280_pressure;Samples;Min_cycle;Max_cycle;Signal;HPM_P1;HPM_P2
2022/06/29 00:00:40;;;;;;;2.08;1.85;;;18.40;99.20;;;;;;5109883;28;20255;-50
2022/06/29 00:03:08;;;;;;;3.13;2.10;;;18.50;99.10;;;;;;5105344;28;20227;-50
2022/06/29 00:05:37;;;;;;;2.17;1.73;;;18.40;99.10;;;;;;5111278;28;20207;-50
2022/06/29 00:08:05;;;;;;;2.15;1.73;;;18.40;99.00;;;;;;5111646;28;20231;-50
2022/06/29 00:10:36;;;;;;;4.50;1.95;;;18.40;99.20;;;;;;5112594;28;20255;-50
2022/06/29 00:13:05;;;;;;;2.35;1.90;;;18.30;99.00;;;;;;5112726;28;20207;-50
2022/06/29 00:15:33;;;;;;;2.92;2.10;;;18.40;99.00;;;;;;5111035;28;20272;-50
2022/06/29 00:18:02;;;;;;;1.90;1.77;;;18.40;98.90;;;;;;5111279;28;20211;-51
2022/06/29 00:20:30;;;;;;;2.20;1.80;;;18.40;99.00;;;;;;5111041;28;20215;-51
2022/06/29 00:22:58;;;;;;;2.58;1.63;;;18.30;99.00;;;;;;5110078;28;20250;-51
2022/06/29 00:25:27;;;;;;;14.55;2.30;;;18.40;99.00;;;;;;5111099;28;20207;-50
2022/06/29 00:27:55;;;;;;;2.13;1.90;;;18.40;98.80;;;;;;5111328;28;20227;-50
2022/06/29 00:30:23;;;;;;;5.20;1.95;;;18.40;98.80;;;;;;5099447;28;20232;-50
2022/06/29 00:32:51;;;;;;;2.83;1.80;;;18.40;99.00;;;;;;5111120;28;20200;-50
2022/06/29 00:35:20;;;;;;;2.10;1.90;;;18.40;98.90;;;;;;5110840;28;20688;-51
2022/06/29 00:37:48;;;;;;;3.50;1.90;;;18.40;98.90;;;;;;5110178;28;20733;-51
2022/06/29 00:40:16;;;;;;;2.03;1.83;;;18.40;98.80;;;;;;5111007;28;20462;-51
2022/06/29 00:42:44;;;;;;;2.03;1.83;;;18.40;98.80;;;;;;5110336;28;20211;-51
2022/06/29 00:45:13;;;;;;;4.25;2.17;;;18.40;98.70;;;;;;5110883;28;20264;-51
2022/06/29 00:47:41;;;;;;;2.55;1.80;;;18.40;98.60;;;;;;5110416;28;20239;-51
2022/06/29 00:50:10;;;;;;;3.97;1.90;;;18.40;98.80;;;;;;5110514;28;20258;-51
2022/06/29 00:52:42;;;;;;;2.10;1.90;;;18.40;98.60;;;;;;5097795;28;20248;-51
2022/06/29 00:55:16;;;;;;;2.28;1.70;;;18.50;98.70;;;;;;5109841;28;20262;-51
2022/06/29 00:57:46;;;;;;;3.78;1.90;;;18.50;98.60;;;;;;5110130;28;20211;-51
2022/06/29 01:00:15;;;;;;;6.90;2.25;;;18.50;98.40;;;;;;5109310;28;20251;-51
2022/06/29 01:02:43;;;;;;;2.00;1.83;;;18.50;98.60;;;;;;5102679;28;20247;-51
2022/06/29 01:05:12;;;;;;;2.35;1.88;;;18.40;98.30;;;;;;5110352;28;20235;-51
2022/06/29 01:07:41;;;;;;;4.80;2.05;;;18.50;98.40;;;;;;5104306;28;20232;-51
2022/06/29 01:10:09;;;;;;;3.30;2.13;;;18.50;98.30;;;;;;5106092;28;20261;-51
2022/06/29 01:12:37;;;;;;;2.75;2.10;;;18.50;98.50;;;;;;5110232;28;20215;-51
2022/06/29 01:15:09;;;;;;;2.15;1.88;;;18.50;98.30;;;;;;5109528;28;20212;-51
2022/06/29 01:17:37;;;;;;;2.08;1.88;;;18.50;98.20;;;;;;5109831;28;20254;-51
2022/06/29 01:20:06;;;;;;;2.55;2.20;;;18.50;98.20;;;;;;5109966;28;20223;-51
2022/06/29 01:22:36;;;;;;;3.85;2.30;;;18.50;98.30;;;;;;5110104;28;20199;-50
2022/06/29 01:25:05;;;;;;;2.95;2.00;;;18.50;98.20;;;;;;5110206;28;20272;-50
2022/06/29 01:27:33;;;;;;;3.40;2.28;;;18.50;98.30;;;;;;5109277;28;20625;-50
2022/06/29 01:30:01;;;;;;;3.20;1.85;;;18.60;98.30;;;;;;5110180;28;20411;-51
2022/06/29 01:32:29;;;;;;;3.08;2.00;;;18.50;98.10;;;;;;5109320;28;20204;-51
2022/06/29 01:34:57;;;;;;;2.80;1.92;;;18.60;98.30;;;;;;5109981;28;20929;-51
2022/06/29 01:37:25;;;;;;;2.22;1.90;;;18.50;98.20;;;;;;5109884;28;20235;-51
2022/06/29 01:39:55;;;;;;;4.72;2.35;;;18.50;98.30;;;;;;5109199;28;20212;-51
2022/06/29 01:42:23;;;;;;;3.67;2.15;;;18.60;98.40;;;;;;5109609;28;20717;-51
2022/06/29 01:44:51;;;;;;;2.20;2.00;;;18.70;98.10;;;;;;5109963;28;20257;-51
2022/06/29 01:47:19;;;;;;;2.60;2.10;;;18.60;98.10;;;;;;5109635;28;20239;-51
2022/06/29 01:49:47;;;;;;;2.47;1.98;;;18.60;98.10;;;;;;5099818;28;20315;-51
2022/06/29 01:52:15;;;;;;;2.17;1.90;;;18.60;98.00;;;;;;5105846;28;20227;-51
2022/06/29 01:54:44;;;;;;;1.90;1.80;;;18.60;98.00;;;;;;5108711;28;20199;-51
2022/06/29 01:57:13;;;;;;;2.42;2.03;;;18.60;98.50;;;;;;5109792;28;20243;-51
2022/06/29 01:59:41;;;;;;;3.55;2.00;;;18.60;98.10;;;;;;5109428;28;20247;-51
2022/06/29 02:02:09;;;;;;;3.97;2.17;;;18.70;98.10;;;;;;5095120;28;20264;-51
2022/06/29 02:04:37;;;;;;;3.45;2.38;;;18.70;98.00;;;;;;5109450;28;20656;-50
2022/06/29 02:07:05;;;;;;;5.03;2.40;;;18.70;97.90;;;;;;5108910;28;20234;-51
2022/06/29 02:09:33;;;;;;;3.22;1.80;;;18.80;98.00;;;;;;5099869;28;20279;-51
2022/06/29 02:12:01;;;;;;;3.38;2.15;;;18.80;98.00;;;;;;5111225;28;20207;-51
2022/06/29 02:14:31;;;;;;;2.97;2.30;;;18.80;98.10;;;;;;5113436;28;20252;-51
2022/06/29 02:16:59;;;;;;;2.40;2.20;;;18.80;98.10;;;;;;5113258;28;20243;-51
2022/06/29 02:19:27;;;;;;;2.92;2.00;;;18.90;98.00;;;;;;5113264;28;20238;-51
2022/06/29 02:21:55;;;;;;;2.65;2.22;;;18.80;98.00;;;;;;5113014;28;20954;-50
2022/06/29 02:24:23;;;;;;;3.83;2.30;;;18.90;97.90;;;;;;5113064;28;20243;-51
2022/06/29 02:26:51;;;;;;;2.88;2.40;;;18.90;98.10;;;;;;5113399;28;20680;-51
2022/06/29 02:29:19;;;;;;;3.30;2.20;;;18.80;98.50;;;;;;5113205;28;20239;-51
2022/06/29 02:34:46;;;;;;;2.67;2.35;;;18.90;98.50;;;;;;5106755;28;20192;-51
2022/06/29 02:37:15;;;;;;;3.22;2.50;;;18.90;98.60;;;;;;5107629;28;20211;-51
2022/06/29 02:39:44;;;;;;;2.38;2.17;;;18.90;98.90;;;;;;5112504;28;20219;-51
2022/06/29 02:42:13;;;;;;;3.17;2.28;;;18.80;98.70;;;;;;5113545;28;20268;-51
2022/06/29 02:44:42;;;;;;;4.47;2.20;;;18.80;98.70;;;;;;5097289;28;20233;-51
2022/06/29 02:47:11;;;;;;;2.63;2.35;;;18.80;98.50;;;;;;5104815;28;20351;-51
2022/06/29 02:49:39;;;;;;;4.70;2.60;;;18.80;98.80;;;;;;5112656;28;20631;-51
2022/06/29 02:52:08;;;;;;;3.83;2.45;;;18.80;99.00;;;;;;5104742;28;20257;-51
2022/06/29 02:54:36;;;;;;;5.93;2.70;;;18.80;99.20;;;;;;5109711;28;20280;-51
2022/06/29 02:57:05;;;;;;;2.50;2.30;;;18.80;99.20;;;;;;5112711;28;20204;-51
2022/06/29 02:59:33;;;;;;;3.28;2.25;;;18.80;98.80;;;;;;5112745;28;20285;-51
2022/06/29 03:02:01;;;;;;;2.95;2.35;;;18.80;98.80;;;;;;5106844;28;20596;-51
2022/06/29 03:04:34;;;;;;;2.35;2.15;;;18.80;98.70;;;;;;5110916;28;20230;-51
2022/06/29 03:07:02;;;;;;;3.47;2.55;;;18.80;98.90;;;;;;5104614;28;20247;-51
2022/06/29 03:09:31;;;;;;;5.05;2.63;;;18.70;99.70;;;;;;5111971;28;20223;-50
2022/06/29 03:11:59;;;;;;;3.40;2.67;;;18.70;99.40;;;;;;5112972;28;20227;-51
2022/06/29 03:14:27;;;;;;;4.50;2.55;;;18.70;99.70;;;;;;5111402;28;20691;-51
2022/06/29 03:16:56;;;;;;;4.10;2.50;;;18.60;99.50;;;;;;5112350;28;20200;-51
2022/06/29 03:19:25;;;;;;;3.08;2.63;;;18.60;99.70;;;;;;5112229;28;20265;-51
2022/06/29 03:21:55;;;;;;;2.35;2.17;;;18.60;99.80;;;;;;5112054;28;20225;-51
2022/06/29 03:24:24;;;;;;;3.40;2.30;;;18.60;99.30;;;;;;5102815;28;20204;-51
2022/06/29 03:26:52;;;;;;;2.97;2.40;;;18.60;99.60;;;;;;5106176;28;20204;-51
2022/06/29 03:29:20;;;;;;;3.67;2.60;;;18.50;99.90;;;;;;5112413;28;20239;-51
2022/06/29 03:31:48;;;;;;;2.63;2.42;;;18.50;99.90;;;;;;5111678;28;20231;-51
2022/06/29 03:34:16;;;;;;;3.42;2.40;;;18.50;99.90;;;;;;5112361;28;20195;-51
2022/06/29 03:36:44;;;;;;;3.60;2.53;;;18.50;99.90;;;;;;5111791;28;20235;-51
2022/06/29 03:39:13;;;;;;;2.83;2.50;;;18.50;99.90;;;;;;5113521;28;21624;-51
2022/06/29 03:41:42;;;;;;;2.63;2.42;;;18.50;99.90;;;;;;5113575;28;20196;-50
2022/06/29 03:44:10;;;;;;;2.50;2.30;;;18.50;99.80;;;;;;5112562;28;20242;-51
2022/06/29 03:46:38;;;;;;;3.25;2.50;;;18.60;99.90;;;;;;5102269;28;20207;-51
2022/06/29 03:49:06;;;;;;;3.25;2.25;;;18.60;99.90;;;;;;5111825;28;20235;-51
2022/06/29 03:51:34;;;;;;;5.88;2.40;;;18.60;99.90;;;;;;5108838;28;20275;-50
2022/06/29 03:54:02;;;;;;;3.05;2.33;;;18.60;99.70;;;;;;5104480;28;20287;-51
2022/06/29 03:56:32;;;;;;;4.30;2.55;;;18.70;99.90;;;;;;5111902;28;20253;-51
2022/06/29 03:58:59;;;;;;;4.13;2.60;;;18.70;99.70;;;;;;5099970;28;20246;-51
2022/06/29 04:01:28;;;;;;;3.33;2.45;;;18.70;99.80;;;;;;5105018;28;20701;-51
2022/06/29 04:03:56;;;;;;;3.30;2.45;;;18.70;99.70;;;;;;5110851;28;20214;-51
2022/06/29 04:06:24;;;;;;;2.97;2.35;;;18.80;99.90;;;;;;5111341;28;20287;-51
2022/06/29 04:08:52;;;;;;;2.60;2.40;;;18.80;99.70;;;;;;5111316;28;20234;-50
2022/06/29 04:14:07;;;;;;;2.50;2.30;;;19.00;99.40;;;;;;5099799;28;20351;-50
2022/06/29 04:16:36;;;;;;;3.28;2.70;;;19.10;99.40;;;;;;5111551;28;20215;-50
2022/06/29 04:19:04;;;;;;;3.80;2.50;;;19.20;99.70;;;;;;5111994;28;20656;-51
2022/06/29 04:21:34;;;;;;;3.15;2.35;;;19.40;99.40;;;;;;5111930;28;20206;-51
2022/06/29 04:24:03;;;;;;;5.35;2.67;;;19.60;99.20;;;;;;5103032;28;20236;-51
2022/06/29 04:26:31;;;;;;;3.78;2.53;;;19.50;99.20;;;;;;5111367;28;20200;-51
2022/06/29 04:28:59;;;;;;;3.83;2.70;;;19.50;99.40;;;;;;5111912;28;20200;-50
2022/06/29 04:31:28;;;;;;;2.70;2.50;;;19.50;99.40;;;;;;5111585;28;20315;-51
2022/06/29 04:33:57;;;;;;;3.95;2.50;;;19.60;99.50;;;;;;5110887;28;20664;-50
2022/06/29 04:36:25;;;;;;;2.53;2.33;;;19.90;99.60;;;;;;5111399;28;20265;-50
2022/06/29 04:38:53;;;;;;;7.05;2.95;;;20.30;98.90;;;;;;5110758;28;20590;-51
2022/06/29 04:41:21;;;;;;;3.78;2.63;;;20.40;98.80;;;;;;5111201;28;20223;-51
2022/06/29 04:43:50;;;;;;;4.50;2.40;;;20.40;99.10;;;;;;5110446;28;20242;-50
2022/06/29 04:46:21;;;;;;;2.70;2.50;;;20.30;99.00;;;;;;5111218;28;21027;-51
2022/06/29 04:48:53;;;;;;;3.08;2.75;;;20.10;99.10;;;;;;5110903;28;20203;-51
2022/06/29 04:51:21;;;;;;;2.63;2.42;;;20.00;99.30;;;;;;5109644;28;20231;-51
2022/06/29 04:53:53;;;;;;;4.32;2.72;;;20.00;99.40;;;;;;5102451;28;20559;-50
2022/06/29 04:56:23;;;;;;;3.15;2.85;;;20.00;99.20;;;;;;5110820;28;20252;-51
2022/06/29 04:58:53;;;;;;;4.22;2.75;;;20.10;99.40;;;;;;5110860;28;20203;-51
2022/06/29 05:01:22;;;;;;;2.92;2.72;;;20.30;99.90;;;;;;5107498;28;20231;-51
2022/06/29 05:03:53;;;;;;;3.22;2.83;;;20.40;99.90;;;;;;5110331;28;20587;-50
2022/06/29 05:06:21;;;;;;;4.50;2.78;;;20.60;99.80;;;;;;5110406;28;20262;-51
2022/06/29 05:08:50;;;;;;;4.93;2.85;;;20.60;99.10;;;;;;5109709;28;20579;-51
2022/06/29 05:11:22;;;;;;;4.07;2.88;;;20.60;99.30;;;;;;5109964;28;20310;-50
2022/06/29 05:13:50;;;;;;;3.50;2.90;;;20.60;99.40;;;;;;5110564;28;20697;-51
2022/06/29 05:16:19;;;;;;;3.78;3.33;;;20.50;99.60;;;;;;5109913;28;20571;-51
2022/06/29 05:18:49;;;;;;;3.35;2.90;;;20.60;99.70;;;;;;5109670;28;20211;-50
2022/06/29 05:21:19;;;;;;;3.30;3.00;;;20.60;99.90;;;;;;5110570;28;20223;-50
2022/06/29 05:23:47;;;;;;;4.72;2.95;;;20.50;99.60;;;;;;5103284;28;20633;-51
2022/06/29 05:26:16;;;;;;;4.55;3.05;;;20.60;99.80;;;;;;5110516;28;20231;-50
2022/06/29 05:28:44;;;;;;;3.28;2.85;;;20.50;99.60;;;;;;5109810;28;20691;-51
2022/06/29 05:31:12;;;;;;;3.10;2.90;;;20.50;99.70;;;;;;5109647;28;20360;-50
2022/06/29 05:33:40;;;;;;;5.40;2.85;;;20.40;99.90;;;;;;5110112;28;20200;-50
2022/06/29 05:36:10;;;;;;;3.20;2.60;;;20.40;99.90;;;;;;5110355;28;20211;-51
2022/06/29 05:38:39;;;;;;;3.78;2.67;;;20.40;99.90;;;;;;5109707;28;20207;-51
2022/06/29 05:41:07;;;;;;;3.97;3.28;;;20.40;99.90;;;;;;5110134;28;20637;-51
2022/06/29 05:43:35;;;;;;;3.03;2.80;;;20.50;99.90;;;;;;5110904;28;20229;-51
2022/06/29 05:46:03;;;;;;;4.40;2.60;;;20.60;99.90;;;;;;5109254;28;20699;-51
2022/06/29 05:48:32;;;;;;;5.13;3.08;;;20.60;99.90;;;;;;5110067;28;20211;-51
2022/06/29 05:51:00;;;;;;;3.28;2.92;;;20.60;99.90;;;;;;5109600;28;20257;-51
2022/06/29 05:53:28;;;;;;;3.22;2.92;;;20.60;99.90;;;;;;5102471;28;20227;-50
2022/06/29 05:55:58;;;;;;;3.63;3.08;;;20.60;99.90;;;;;;5109920;28;20233;-50
2022/06/29 05:58:26;;;;;;;3.40;3.10;;;20.60;99.90;;;;;;5109724;28;20203;-51
2022/06/29 06:00:54;;;;;;;3.13;2.83;;;20.70;99.90;;;;;;5105654;28;20256;-51
2022/06/29 06:03:22;;;;;;;4.53;3.13;;;20.70;99.90;;;;;;5099628;28;20548;-51
2022/06/29 06:05:50;;;;;;;3.60;2.97;;;20.70;99.90;;;;;;5109420;28;20201;-51
2022/06/29 06:08:18;;;;;;;3.50;2.80;;;20.70;99.90;;;;;;5109445;28;20208;-51
2022/06/29 06:10:46;;;;;;;5.75;3.22;;;20.70;99.90;;;;;;5109464;28;20231;-51
2022/06/29 06:13:15;;;;;;;3.50;3.20;;;20.70;99.90;;;;;;5109349;28;20223;-51
2022/06/29 06:15:43;;;;;;;4.03;3.03;;;20.70;99.90;;;;;;5109494;28;20211;-51
2022/06/29 06:18:12;;;;;;;6.28;3.20;;;20.70;99.90;;;;;;5108677;28;20745;-51
2022/06/29 06:20:40;;;;;;;3.25;3.00;;;20.70;99.90;;;;;;5109433;28;20250;-51
2022/06/29 06:23:08;;;;;;;4.30;3.25;;;20.70;99.90;;;;;;5102401;28;20239;-51
2022/06/29 06:25:36;;;;;;;3.70;3.20;;;20.70;99.90;;;;;;5109344;28;20250;-51
2022/06/29 06:28:05;;;;;;;3.75;3.25;;;20.80;99.90;;;;;;5109648;28;20204;-51
2022/06/29 06:30:35;;;;;;;3.88;2.80;;;20.90;99.90;;;;;;5108885;28;20231;-51
2022/06/29 06:33:03;;;;;;;3.80;3.30;;;20.90;99.90;;;;;;5109319;28;20224;-51
2022/06/29 06:35:32;;;;;;;4.45;3.53;;;20.90;99.90;;;;;;5109000;28;20585;-51
2022/06/29 06:38:01;;;;;;;4.20;3.45;;;21.00;99.90;;;;;;5109097;28;20211;-51
2022/06/29 06:43:15;;;;;;;3.88;3.42;;;21.00;99.90;;;;;;5109741;28;20707;-51
2022/06/29 06:45:44;;;;;;;3.60;3.30;;;21.10;99.90;;;;;;5108622;28;20208;-51
2022/06/29 06:48:12;;;;;;;3.88;3.30;;;21.10;99.90;;;;;;5109150;28;20257;-51
2022/06/29 06:50:41;;;;;;;7.38;3.70;;;21.10;99.90;;;;;;5109008;28;20711;-51
2022/06/29 06:53:15;;;;;;;3.45;3.15;;;21.10;99.90;;;;;;5088028;28;20232;-51
2022/06/29 06:55:43;;;;;;;5.22;3.40;;;21.20;99.90;;;;;;5092448;28;20277;-51
2022/06/29 06:58:11;;;;;;;4.93;3.63;;;21.20;99.90;;;;;;5100691;28;20199;-52
2022/06/29 07:00:39;;;;;;;4.25;3.50;;;21.30;99.90;;;;;;5112218;28;20228;-51
2022/06/29 07:03:08;;;;;;;3.60;3.30;;;21.40;99.90;;;;;;5112339;28;20246;-51
2022/06/29 07:05:37;;;;;;;4.82;3.40;;;21.50;99.90;;;;;;5101024;28;20208;-51
2022/06/29 07:08:06;;;;;;;4.35;3.58;;;21.60;99.90;;;;;;5112358;28;20208;-51
2022/06/29 07:10:34;;;;;;;5.10;3.65;;;21.70;99.90;;;;;;5113138;28;20612;-50
2022/06/29 07:13:02;;;;;;;4.18;3.33;;;21.90;99.90;;;;;;5113762;28;20231;-49
2022/06/29 07:15:30;;;;;;;4.20;3.67;;;22.10;99.90;;;;;;5111724;28;20666;-51
2022/06/29 07:17:58;;;;;;;4.90;3.50;;;22.30;99.90;;;;;;5112183;28;20676;-51
2022/06/29 07:20:28;;;;;;;3.83;3.22;;;22.50;99.90;;;;;;5112035;28;20258;-51
2022/06/29 07:22:56;;;;;;;4.10;3.70;;;22.70;99.90;;;;;;5107024;28;20204;-51
2022/06/29 07:25:24;;;;;;;4.72;3.60;;;23.00;99.90;;;;;;5111619;28;20199;-51
2022/06/29 07:27:52;;;;;;;3.88;3.53;;;23.20;99.90;;;;;;5112059;28;20789;-51
2022/06/29 07:30:20;;;;;;;4.57;3.45;;;23.10;99.90;;;;;;5087293;28;20903;-51
2022/06/29 07:32:48;;;;;;;3.80;3.42;;;23.10;99.90;;;;;;5084350;28;20358;-51
2022/06/29 07:35:16;;;;;;;4.70;3.78;;;23.00;99.90;;;;;;5090985;28;20689;-51
2022/06/29 07:37:46;;;;;;;4.05;3.72;;;22.90;99.90;;;;;;5090648;28;20251;-51
2022/06/29 07:40:14;;;;;;;5.07;3.95;;;23.00;99.90;;;;;;5090496;28;20232;-51
2022/06/29 07:42:42;;;;;;;6.30;4.15;;;22.90;99.90;;;;;;5078243;28;20236;-51
2022/06/29 07:45:11;;;;;;;5.20;4.80;;;22.90;99.90;;;;;;5090796;28;20636;-52
2022/06/29 07:47:40;;;;;;;5.05;4.30;;;22.90;99.90;;;;;;5090948;28;20208;-52
2022/06/29 07:50:12;;;;;;;5.55;4.10;;;23.00;99.90;;;;;;5090687;28;20303;-51
2022/06/29 07:52:41;;;;;;;4.60;3.80;;;23.10;99.90;;;;;;5090261;28;20212;-51
2022/06/29 07:55:11;;;;;;;3.83;3.50;;;23.10;99.90;;;;;;5090091;28;20270;-51
2022/06/29 07:57:39;;;;;;;4.40;3.78;;;23.10;99.90;;;;;;5090972;28;20730;-51
2022/06/29 08:00:09;;;;;;;5.25;4.72;;;23.20;99.90;;;;;;5090685;28;20228;-51
2022/06/29 08:02:37;;;;;;;6.43;4.35;;;23.10;99.90;;;;;;5086418;28;20200;-51
2022/06/29 08:05:05;;;;;;;4.40;4.00;;;23.00;99.90;;;;;;5080997;28;20692;-51
2022/06/29 08:07:34;;;;;;;5.65;3.70;;;22.90;99.90;;;;;;5077507;28;20208;-52
2022/06/29 08:10:03;;;;;;;5.22;4.00;;;22.90;99.90;;;;;;5090335;28;20227;-51
2022/06/29 08:12:34;;;;;;;4.63;3.40;;;23.00;99.90;;;;;;5089795;28;20261;-51
2022/06/29 08:15:03;;;;;;;4.45;4.05;;;23.00;99.90;;;;;;5090732;28;20196;-51
2022/06/29 08:17:31;;;;;;;4.82;3.78;;;22.90;99.90;;;;;;5089518;28;20243;-51
2022/06/29 08:20:01;;;;;;;3.85;3.55;;;22.90;99.90;;;;;;5107771;28;20784;-51
2022/06/29 08:22:29;;;;;;;4.35;3.95;;;22.90;99.90;;;;;;5109726;28;20203;-51
2022/06/29 08:24:58;;;;;;;3.97;3.60;;;23.10;99.90;;;;;;5106223;28;20728;-52
2022/06/29 08:27:26;;;;;;;4.43;4.00;;;23.10;99.90;;;;;;5111111;28;20763;-51
2022/06/29 08:30:15;;;;;;;3.90;3.60;;;23.40;99.90;;;;;;5079638;28;20263;-51
2022/06/29 08:32:44;;;;;;;7.50;4.20;;;23.70;99.90;;;;;;5090395;28;20260;-51
2022/06/29 08:35:13;;;;;;;5.25;4.50;;;24.10;99.90;;;;;;5090128;28;20211;-50
2022/06/29 08:37:42;;;;;;;5.57;3.88;;;24.50;99.90;;;;;;5090104;28;20717;-51
2022/06/29 08:40:13;;;;;;;4.38;3.97;;;24.50;99.90;;;;;;5088829;28;20228;-52
2022/06/29 08:42:42;;;;;;;7.50;3.90;;;24.40;99.90;;;;;;5089531;28;20578;-51
2022/06/29 08:45:11;;;;;;;4.95;4.20;;;24.40;99.90;;;;;;5089994;28;20209;-52
2022/06/29 08:47:43;;;;;;;5.10;3.95;;;24.40;99.90;;;;;;5089101;28;20333;-52
2022/06/29 08:50:12;;;;;;;6.65;4.35;;;24.40;99.90;;;;;;5089747;28;20719;-51
2022/06/29 08:52:43;;;;;;;4.50;4.05;;;24.50;99.90;;;;;;5088981;28;20562;-52
2022/06/29 08:55:11;;;;;;;4.63;3.95;;;24.50;99.90;;;;;;5088664;28;20608;-52
2022/06/29 08:57:41;;;;;;;4.40;4.00;;;24.40;99.90;;;;;;5087608;28;20258;-52
2022/06/29 09:00:11;;;;;;;7.22;4.00;;;24.30;99.90;;;;;;5089668;28;20280;-52
2022/06/29 09:02:41;;;;;;;4.65;3.80;;;24.40;99.90;;;;;;5089290;28;20209;-51
2022/06/29 09:05:11;;;;;;;5.78;4.05;;;24.40;99.90;;;;;;5089732;28;20204;-51
2022/06/29 09:07:40;;;;;;;5.70;4.38;;;24.40;99.90;;;;;;5089208;28;20628;-50
2022/06/29 09:10:11;;;;;;;5.40;4.38;;;24.40;99.90;;;;;;5088524;28;21071;-52
2022/06/29 09:12:41;;;;;;;6.40;4.40;;;24.50;99.90;;;;;;5089447;28;20204;-51
2022/06/29 09:15:10;;;;;;;5.38;4.45;;;24.50;99.90;;;;;;5084052;28;20256;-52
2022/06/29 09:17:39;;;;;;;4.65;4.20;;;24.50;99.90;;;;;;5089492;28;20219;-52
2022/06/29 09:20:13;;;;;;;6.35;4.47;;;24.60;99.90;;;;;;5107555;28;20240;-51
2022/06/29 09:23:00;;;;;;;6.65;4.00;;;24.80;99.90;;;;;;5103376;28;20228;-52
2022/06/29 09:25:30;;;;;;;5.70;4.25;;;24.90;99.90;;;;;;5112006;28;20207;-50
2022/06/29 09:27:59;;;;;;;5.32;4.63;;;25.00;99.90;;;;;;5115531;28;20672;-50
2022/06/29 09:30:29;;;;;;;5.45;4.38;;;25.00;99.90;;;;;;5110034;28;20280;-51
2022/06/29 09:33:04;;;;;;;7.13;4.68;;;25.20;99.90;;;;;;5108891;28;20218;-51
2022/06/29 09:35:34;;;;;;;5.22;4.60;;;25.30;99.90;;;;;;5110470;28;20211;-51
2022/06/29 09:38:22;;;;;;;5.30;4.13;;;25.40;99.90;;;;;;5109732;28;20211;-50
2022/06/29 09:41:01;;;;;;;5.63;4.80;;;25.60;99.90;;;;;;5108900;28;20227;-51
2022/06/29 09:43:30;;;;;;;4.57;4.18;;;25.80;99.90;;;;;;5108109;28;20242;-51
2022/06/29 09:46:00;;;;;;;4.63;4.22;;;25.90;99.90;;;;;;5083393;28;20698;-51
2022/06/29 09:48:30;;;;;;;4.70;4.32;;;26.20;99.90;;;;;;5081353;28;20212;-51
2022/06/29 09:51:00;;;;;;;4.80;4.13;;;26.20;99.90;;;;;;5089042;28;20612;-51
2022/06/29 09:53:38;;;;;;;5.13;4.10;;;26.10;99.90;;;;;;5088064;28;20212;-51
2022/06/29 09:56:08;;;;;;;5.18;4.22;;;26.00;99.90;;;;;;5089378;28;20277;-51
2022/06/29 09:58:42;;;;;;;8.20;4.22;;;25.80;99.90;;;;;;5089122;28;20250;-51
2022/06/29 10:03:58;;;;;;;4.55;4.13;;;25.80;99.90;;;;;;5089593;28;20302;-51
2022/06/29 10:06:28;;;;;;;4.30;3.90;;;25.60;99.90;;;;;;5088767;28;20627;-51
2022/06/29 10:09:02;;;;;;;4.38;4.00;;;25.80;99.90;;;;;;5090335;28;20223;-50
2022/06/29 10:14:38;;;;;;;6.03;4.28;;;26.10;99.90;;;;;;5088860;28;20227;-50
2022/06/29 10:17:16;;;;;;;4.50;4.15;;;26.10;99.90;;;;;;5088504;28;20226;-51
2022/06/29 10:19:54;;;;;;;5.07;4.55;;;26.10;99.90;;;;;;5102466;28;20223;-51
2022/06/29 10:22:24;;;;;;;4.20;3.80;;;26.10;99.90;;;;;;5109439;28;20265;-51
2022/06/29 10:25:01;;;;;;;5.30;4.50;;;26.10;99.90;;;;;;5108590;28;20734;-51
2022/06/29 10:27:30;;;;;;;4.72;4.28;;;26.00;99.90;;;;;;5109540;28;20211;-51
2022/06/29 10:30:23;;;;;;;4.15;3.85;;;26.10;99.90;;;;;;5108902;28;20235;-51
2022/06/29 10:32:51;;;;;;;4.38;3.97;;;26.10;99.90;;;;;;5111024;28;20220;-50
2022/06/29 10:35:20;;;;;;;5.88;4.32;;;26.20;99.90;;;;;;5111530;28;20565;-51
2022/06/29 10:37:51;;;;;;;5.38;4.32;;;26.20;99.90;;;;;;5093314;28;20277;-51
2022/06/29 10:40:22;;;;;;;5.07;4.57;;;26.30;99.90;;;;;;5108871;28;20227;-51
2022/06/29 10:43:08;;;;;;;5.00;4.57;;;26.40;99.90;;;;;;5108271;28;20265;-51
2022/06/29 10:45:42;;;;;;;6.40;4.40;;;26.40;99.90;;;;;;5108542;28;20200;-51
2022/06/29 10:48:26;;;;;;;5.57;4.85;;;26.50;99.90;;;;;;5075816;28;20684;-50
2022/06/29 10:50:55;;;;;;;5.22;4.22;;;26.50;99.90;;;;;;5092382;28;20259;-49
2022/06/29 10:53:24;;;;;;;5.07;4.68;;;26.50;99.90;;;;;;5092128;28;20208;-51
2022/06/29 10:55:55;;;;;;;6.43;4.72;;;26.50;99.90;;;;;;5092347;28;20252;-51
2022/06/29 10:58:24;;;;;;;5.22;4.80;;;26.50;99.90;;;;;;5092024;28;20262;-51
2022/06/29 11:00:53;;;;;;;5.70;4.68;;;26.70;99.90;;;;;;5092119;28;20708;-51
2022/06/29 11:03:25;;;;;;;4.82;4.40;;;26.70;99.90;;;;;;5092039;28;20212;-51
2022/06/29 11:17:03;;;;;;;5.65;4.70;;;26.70;99.90;;;;;;5082072;28;20208;-50
2022/06/29 11:19:34;;;;;;;4.95;4.43;;;26.80;99.90;;;;;;5104972;28;20825;-50
2022/06/29 11:22:11;;;;;;;4.85;4.40;;;26.90;99.90;;;;;;5112028;28;20230;-50
2022/06/29 11:24:55;;;;;;;5.22;4.82;;;26.90;99.90;;;;;;5112276;28;20664;-50
2022/06/29 11:27:35;;;;;;;4.68;4.13;;;27.10;99.90;;;;;;5086910;28;20204;-51
2022/06/29 11:30:05;;;;;;;5.75;5.25;;;27.00;99.90;;;;;;5112476;28;20246;-50
2022/06/29 11:32:41;;;;;;;7.43;5.10;;;26.90;99.90;;;;;;5112023;28;20634;-50
2022/06/29 11:35:10;;;;;;;5.40;4.30;;;26.90;99.90;;;;;;5111578;28;20231;-51
2022/06/29 11:37:47;;;;;;;4.57;4.18;;;26.70;99.90;;;;;;5087433;28;20214;-51
2022/06/29 11:40:19;;;;;;;4.90;4.30;;;26.50;99.90;;;;;;5111893;28;20943;-51
2022/06/29 11:43:06;;;;;;;4.45;4.05;;;26.60;99.90;;;;;;5107242;28;20204;-50
2022/06/29 11:45:38;;;;;;;5.85;4.30;;;26.50;99.90;;;;;;5108397;28;20223;-51
2022/06/29 11:48:15;;;;;;;4.57;4.18;;;26.40;99.90;;;;;;5112012;28;20207;-51
2022/06/29 11:50:45;;;;;;;4.53;4.13;;;26.60;99.90;;;;;;5111729;28;20757;-51
2022/06/29 11:53:14;;;;;;;4.25;3.85;;;26.60;99.90;;;;;;5111711;28;20211;-51
2022/06/29 11:55:45;;;;;;;5.15;3.90;;;26.60;99.70;;;;;;5111878;28;20223;-51
2022/06/29 11:58:15;;;;;;;4.07;3.78;;;26.80;99.40;;;;;;5112001;28;20260;-51
2022/06/29 12:00:44;;;;;;;4.68;4.05;;;26.80;99.90;;;;;;5110876;28;20259;-51
2022/06/29 12:03:15;;;;;;;4.10;3.63;;;26.90;99.90;;;;;;5111719;28;20246;-52
2022/06/29 12:05:57;;;;;;;6.30;4.22;;;26.80;99.80;;;;;;5111082;28;20203;-51
2022/06/29 12:08:26;;;;;;;4.60;4.18;;;27.00;98.10;;;;;;5111176;28;20241;-51
2022/06/29 12:10:55;;;;;;;4.50;4.10;;;27.00;97.90;;;;;;5111762;28;20224;-51
2022/06/29 12:13:24;;;;;;;5.30;4.00;;;27.00;97.70;;;;;;5111734;28;20207;-50
2022/06/29 12:15:52;;;;;;;7.38;4.10;;;26.90;98.50;;;;;;5111564;28;20220;-51
2022/06/29 12:18:20;;;;;;;6.43;3.83;;;26.90;97.10;;;;;;5111561;28;20216;-51
2022/06/29 12:20:48;;;;;;;4.25;3.85;;;27.00;97.30;;;;;;5102925;28;20255;-50
2022/06/29 12:23:17;;;;;;;4.22;3.67;;;26.90;96.60;;;;;;5111145;28;20203;-49
2022/06/29 12:25:45;;;;;;;3.92;3.60;;;26.80;97.20;;;;;;5111244;28;20314;-51
2022/06/29 12:28:15;;;;;;;4.00;3.70;;;26.90;97.90;;;;;;5111329;28;20215;-50
2022/06/29 12:30:43;;;;;;;4.00;3.70;;;27.00;97.10;;;;;;5111063;28;20661;-51
2022/06/29 12:33:11;;;;;;;4.82;3.50;;;27.00;96.50;;;;;;5111226;28;20199;-50
2022/06/29 12:35:39;;;;;;;3.72;3.42;;;27.00;96.20;;;;;;5111035;28;20259;-50
2022/06/29 12:38:08;;;;;;;3.78;3.40;;;26.90;95.80;;;;;;5110532;28;20219;-51
2022/06/29 12:40:36;;;;;;;3.60;3.25;;;27.00;96.00;;;;;;5111195;28;20254;-50
2022/06/29 12:43:04;;;;;;;4.28;3.85;;;27.10;96.10;;;;;;5119779;28;20207;-51
2022/06/29 12:45:34;;;;;;;4.13;3.67;;;27.10;96.30;;;;;;5120340;28;20203;-51
2022/06/29 12:48:03;;;;;;;5.22;3.83;;;27.20;97.10;;;;;;5111076;28;20203;-51
2022/06/29 12:50:31;;;;;;;4.28;3.88;;;27.30;96.60;;;;;;5090715;28;20302;-51
2022/06/29 12:52:59;;;;;;;4.28;3.92;;;27.30;96.30;;;;;;5109550;28;20211;-51
2022/06/29 12:55:27;;;;;;;3.83;3.53;;;27.30;96.00;;;;;;5108988;28;20228;-51
2022/06/29 12:57:55;;;;;;;3.90;3.50;;;27.20;95.90;;;;;;5110062;28;20634;-51
2022/06/29 13:00:24;;;;;;;3.88;3.47;;;27.30;95.90;;;;;;5085907;28;20292;-52
2022/06/29 13:02:54;;;;;;;4.28;3.88;;;27.30;95.20;;;;;;5088382;28;20212;-53
2022/06/29 13:05:22;;;;;;;5.47;3.10;;;27.40;96.90;;;;;;5088715;28;20197;-52
2022/06/29 13:07:50;;;;;;;5.38;3.72;;;27.50;95.50;;;;;;5088401;28;20228;-51
2022/06/29 13:10:19;;;;;;;4.65;3.28;;;27.50;95.00;;;;;;5089123;28;20224;-51
2022/06/29 13:12:47;;;;;;;3.75;3.45;;;27.40;94.50;;;;;;5088619;28;20250;-51
2022/06/29 13:15:15;;;;;;;3.80;3.38;;;27.40;95.00;;;;;;5107709;28;20231;-51
2022/06/29 13:17:43;;;;;;;5.15;3.38;;;27.50;95.30;;;;;;5108178;28;20216;-51
2022/06/29 13:20:13;;;;;;;4.82;3.40;;;27.50;94.90;;;;;;5100339;28;20583;-52
2022/06/29 13:22:42;;;;;;;3.83;3.53;;;27.40;94.70;;;;;;5108642;28;20579;-51
2022/06/29 13:25:11;;;;;;;3.92;3.53;;;27.50;95.20;;;;;;5109494;28;20226;-51